createdAt,value
2022-12-24T00:00:31.491Z,4.22
2022-12-24T00:03:36.718Z,4.22
2022-12-24T00:06:40.415Z,4.20
2022-12-24T00:09:44.090Z,4.21
2022-12-24T00:12:47.860Z,4.22
2022-12-24T00:15:53.380Z,4.17
2022-12-24T00:18:57.128Z,4.15
2022-12-24T00:22:00.742Z,4.16
2022-12-24T00:25:04.514Z,4.15
2022-12-24T00:28:08.160Z,4.12
2022-12-24T00:31:18.200Z,4.14
2022-12-24T00:34:24.158Z,4.10
2022-12-24T00:37:27.947Z,4.14
2022-12-24T00:40:32.395Z,4.10
2022-12-24T00:43:36.024Z,4.12
2022-12-24T00:46:42.918Z,4.13
2022-12-24T00:49:47.096Z,4.10
2022-12-24T00:52:50.857Z,4.15
2022-12-24T00:55:54.520Z,4.13
2022-12-24T00:58:58.554Z,4.14
2022-12-24T01:02:03.623Z,4.15
2022-12-24T01:05:14.549Z,4.18
2022-12-24T01:08:18.367Z,4.15
2022-12-24T01:11:22.079Z,4.17
2022-12-24T01:14:25.931Z,4.13
2022-12-24T01:17:33.186Z,4.14
2022-12-24T01:20:36.926Z,4.16
2022-12-24T01:23:40.555Z,4.17
2022-12-24T01:26:44.356Z,4.16
2022-12-24T01:29:48.084Z,4.18
2022-12-24T01:32:53.107Z,4.12
2022-12-24T01:35:56.926Z,4.17
2022-12-24T01:39:00.629Z,4.16
2022-12-24T01:42:21.576Z,4.17
2022-12-24T01:45:47.603Z,4.16
2022-12-24T01:48:58.157Z,4.17
2022-12-24T01:52:08.195Z,4.15
2022-12-24T01:55:17.985Z,4.18
2022-12-24T01:58:26.911Z,4.18
2022-12-24T02:01:30.843Z,4.14
2022-12-24T02:04:45.233Z,4.14
2022-12-24T02:07:50.695Z,4.13
2022-12-24T02:10:54.313Z,4.09
2022-12-24T02:14:02.661Z,4.10
2022-12-24T02:17:20.523Z,4.13
2022-12-24T02:21:23.120Z,4.12
2022-12-24T02:25:12.362Z,4.14
2022-12-24T02:28:45.537Z,4.13
2022-12-24T02:31:59.069Z,4.14
2022-12-24T02:35:12.709Z,4.12
2022-12-24T02:38:26.124Z,4.13
2022-12-24T02:41:55.348Z,4.13
2022-12-24T02:45:06.938Z,4.10
2022-12-24T02:48:15.427Z,4.11
2022-12-24T02:51:24.212Z,4.08
2022-12-24T02:54:28.576Z,4.11
2022-12-24T02:57:52.222Z,4.13
2022-12-24T03:01:17.705Z,4.14
2022-12-24T03:04:43.232Z,4.12
2022-12-24T03:08:00.245Z,4.16
2022-12-24T03:11:12.059Z,4.16
2022-12-24T03:14:18.148Z,4.14
2022-12-24T03:17:22.851Z,4.12
2022-12-24T03:20:36.147Z,4.13
2022-12-24T03:23:40.305Z,4.15
2022-12-24T03:26:47.591Z,4.14
2022-12-24T03:29:51.295Z,4.14
2022-12-24T03:32:55.093Z,4.10
2022-12-24T03:36:00.291Z,4.11
2022-12-24T03:39:04.427Z,4.12
2022-12-24T03:42:08.095Z,4.13
2022-12-24T03:45:12.562Z,4.12
2022-12-24T03:48:16.282Z,4.08
2022-12-24T03:51:24.373Z,4.10
2022-12-24T03:54:28.039Z,4.14
2022-12-24T03:57:31.637Z,4.17
2022-12-24T04:00:35.329Z,4.18
2022-12-24T04:03:39.028Z,4.18
2022-12-24T04:06:44.565Z,4.19
2022-12-24T04:09:48.141Z,4.22
2022-12-24T04:12:51.696Z,4.15
2022-12-24T04:16:00.249Z,4.16
2022-12-24T04:19:04.128Z,4.23
2022-12-24T04:22:09.401Z,4.23
2022-12-24T04:25:13.023Z,4.25
2022-12-24T04:28:17.530Z,4.19
2022-12-24T04:31:21.431Z,4.21
2022-12-24T04:34:25.295Z,4.18
2022-12-24T04:37:30.317Z,4.26
2022-12-24T04:40:33.900Z,4.23
2022-12-24T04:43:37.616Z,4.23
2022-12-24T04:46:42.362Z,4.23
2022-12-24T04:49:45.923Z,4.24
2022-12-24T04:52:50.889Z,4.28
2022-12-24T04:55:54.561Z,4.14
2022-12-24T04:58:59.462Z,4.18
2022-12-24T05:02:03.198Z,4.18
2022-12-24T05:05:08.052Z,4.18
2022-12-24T05:08:13.383Z,4.19
2022-12-24T05:11:17.603Z,4.26
2022-12-24T05:14:21.243Z,4.27
2022-12-24T05:17:25.207Z,4.22
2022-12-24T05:20:28.846Z,4.20
2022-12-24T05:23:51.101Z,4.24
2022-12-24T05:26:59.414Z,4.25
2022-12-24T05:30:03.262Z,4.34
2022-12-24T05:33:06.917Z,4.27
2022-12-24T05:36:11.365Z,4.32
2022-12-24T05:39:18.726Z,4.37
2022-12-24T05:42:22.593Z,4.35
2022-12-24T05:45:37.723Z,4.40
2022-12-24T05:48:41.677Z,4.42
2022-12-24T05:51:46.144Z,4.48
2022-12-24T05:54:51.200Z,4.45
2022-12-24T05:57:54.859Z,4.49
2022-12-24T06:00:58.784Z,4.53
2022-12-24T06:04:02.504Z,4.59
2022-12-24T06:07:06.758Z,4.63
2022-12-24T06:10:12.524Z,4.64
2022-12-24T06:13:16.157Z,4.69
2022-12-24T06:16:22.418Z,4.78
2022-12-24T06:19:26.245Z,4.88
2022-12-24T06:22:29.928Z,4.94
2022-12-24T06:25:35.826Z,5.03
2022-12-24T06:28:40.019Z,5.06
2022-12-24T06:31:43.807Z,5.18
2022-12-24T06:34:47.373Z,5.26
2022-12-24T06:37:50.984Z,5.40
2022-12-24T06:40:56.514Z,5.36
2022-12-24T06:44:00.146Z,5.28
2022-12-24T06:47:03.733Z,5.17
2022-12-24T06:50:09.127Z,5.15
2022-12-24T06:53:13.044Z,5.13
2022-12-24T06:56:20.457Z,5.15
2022-12-24T06:59:24.260Z,5.12
2022-12-24T07:02:28.065Z,5.16
2022-12-24T07:05:31.914Z,5.15
2022-12-24T07:08:36.523Z,5.17
2022-12-24T07:11:41.607Z,5.26
2022-12-24T07:14:45.255Z,5.26
2022-12-24T07:17:48.929Z,5.41
2022-12-24T07:20:52.599Z,5.50
2022-12-24T07:23:56.183Z,5.81
2022-12-24T07:27:03.338Z,5.93
2022-12-24T07:30:08.722Z,5.99
2022-12-24T07:33:12.902Z,6.07
2022-12-24T07:36:22.604Z,6.21
2022-12-24T07:39:26.207Z,6.24
2022-12-24T07:42:31.120Z,6.26
2022-12-24T07:45:34.839Z,6.23
2022-12-24T07:48:38.661Z,6.28
2022-12-24T07:51:42.287Z,6.29
2022-12-24T07:54:45.916Z,6.27
2022-12-24T07:57:51.011Z,6.29
2022-12-24T08:00:59.589Z,6.28
2022-12-24T08:04:03.362Z,6.29
2022-12-24T08:07:09.202Z,6.25
2022-12-24T08:10:13.023Z,6.25
2022-12-24T08:13:18.280Z,6.27
2022-12-24T08:16:22.143Z,6.30
2022-12-24T08:19:26.262Z,6.38
2022-12-24T08:22:29.918Z,6.41
2022-12-24T08:25:33.621Z,6.41
2022-12-24T08:28:39.228Z,6.44
2022-12-24T08:31:43.699Z,6.44
2022-12-24T08:34:47.402Z,6.46
2022-12-24T08:37:51.047Z,6.48
2022-12-24T08:40:55.762Z,6.48
2022-12-24T08:44:00.890Z,6.47
2022-12-24T08:47:04.751Z,6.49
2022-12-24T08:50:10.915Z,6.50
2022-12-24T08:53:14.805Z,6.49
2022-12-24T08:56:18.616Z,6.51
2022-12-24T08:59:23.734Z,6.49
2022-12-24T09:02:27.563Z,6.44
2022-12-24T09:05:31.380Z,6.46
2022-12-24T09:08:35.563Z,6.50
2022-12-24T09:11:39.398Z,6.53
2022-12-24T09:14:44.376Z,6.58
2022-12-24T09:17:49.650Z,6.59
2022-12-24T09:21:00.545Z,6.62
2022-12-24T09:24:07.803Z,6.72
2022-12-24T09:27:13.333Z,6.69
2022-12-24T09:30:20.820Z,6.72
2022-12-24T09:33:26.410Z,6.70
2022-12-24T09:36:31.838Z,6.75
2022-12-24T09:39:37.586Z,6.80
2022-12-24T09:42:53.858Z,6.84
2022-12-24T09:46:13.604Z,6.94
2022-12-24T09:49:24.804Z,6.99
2022-12-24T09:52:37.827Z,6.98
2022-12-24T09:55:50.612Z,6.98
2022-12-24T09:59:01.090Z,7.08
2022-12-24T10:02:15.549Z,7.14
2022-12-24T10:05:31.314Z,7.26
2022-12-24T10:08:52.738Z,7.59
2022-12-24T10:12:10.722Z,7.84
2022-12-24T10:15:28.988Z,8.03
2022-12-24T10:18:49.255Z,7.83
2022-12-24T10:22:08.190Z,7.77
2022-12-24T10:25:24.058Z,7.72
2022-12-24T10:28:40.052Z,7.63
2022-12-24T10:31:54.733Z,7.60
2022-12-24T10:35:07.767Z,7.66
2022-12-24T10:38:11.569Z,7.59
2022-12-24T10:41:17.440Z,7.55
2022-12-24T10:44:27.695Z,7.48
2022-12-24T10:47:38.416Z,7.44
2022-12-24T10:50:57.530Z,7.36
2022-12-24T10:54:11.937Z,7.47
2022-12-24T10:57:27.953Z,7.43
2022-12-24T11:00:36.463Z,7.44
2022-12-24T11:03:40.758Z,7.40
2022-12-24T11:06:56.445Z,7.46
2022-12-24T11:10:03.073Z,7.49
2022-12-24T11:13:36.063Z,7.52
2022-12-24T11:16:35.709Z,7.61
2022-12-24T11:19:41.216Z,7.73
2022-12-24T11:22:51.552Z,7.82
2022-12-24T11:25:57.113Z,7.97
2022-12-24T11:29:21.154Z,7.98
2022-12-24T11:32:25.288Z,8.00
2022-12-24T11:35:32.610Z,7.97
2022-12-24T11:38:38.366Z,8.01
2022-12-24T11:41:42.308Z,8.07
2022-12-24T11:44:51.454Z,8.15
2022-12-24T11:47:56.590Z,8.14
2022-12-24T11:51:02.998Z,8.12
2022-12-24T11:54:18.395Z,8.19
2022-12-24T11:57:26.341Z,8.26
2022-12-24T12:00:30.805Z,8.28
2022-12-24T12:03:41.660Z,8.30
2022-12-24T12:06:50.769Z,8.41
2022-12-24T12:10:05.545Z,8.38
2022-12-24T12:13:16.312Z,8.33
2022-12-24T12:16:28.171Z,8.29
2022-12-24T12:19:47.444Z,8.25
2022-12-24T12:22:59.571Z,8.21
2022-12-24T12:26:14.130Z,8.25
2022-12-24T12:29:32.311Z,8.23
2022-12-24T12:32:50.189Z,8.26
2022-12-24T12:35:56.785Z,8.27
2022-12-24T12:39:00.757Z,8.24
2022-12-24T12:42:19.484Z,8.24
2022-12-24T12:45:47.106Z,8.22
2022-12-24T12:49:22.053Z,8.19
2022-12-24T12:52:55.533Z,8.29
2022-12-24T12:56:14.734Z,8.34
2022-12-24T12:59:34.940Z,8.28
2022-12-24T13:03:29.982Z,8.16
2022-12-24T13:06:57.202Z,8.10
2022-12-24T13:10:42.590Z,8.09
2022-12-24T13:14:23.017Z,8.12
2022-12-24T13:18:14.804Z,8.15
2022-12-24T13:21:22.770Z,8.17
2022-12-24T13:24:30.809Z,8.16
2022-12-24T13:27:36.463Z,8.20
2022-12-24T13:30:42.153Z,8.21
2022-12-24T13:33:52.044Z,8.22
2022-12-24T13:37:06.879Z,8.23
2022-12-24T13:40:25.641Z,8.23
2022-12-24T13:44:05.350Z,8.25
2022-12-24T13:47:31.700Z,8.26
2022-12-24T13:50:43.506Z,8.24
2022-12-24T13:53:50.037Z,8.28
2022-12-24T13:56:53.676Z,8.30
2022-12-24T14:00:03.008Z,8.31
2022-12-24T14:03:24.223Z,8.30
2022-12-24T14:06:33.643Z,8.31
2022-12-24T14:09:37.937Z,8.30
2022-12-24T14:12:52.649Z,8.33
2022-12-24T14:16:05.327Z,8.27
2022-12-24T14:19:17.404Z,8.35
2022-12-24T14:22:32.015Z,8.27
2022-12-24T14:25:36.513Z,8.15
2022-12-24T14:28:48.303Z,8.14
2022-12-24T14:31:53.629Z,8.11
2022-12-24T14:35:09.985Z,8.06
2022-12-24T14:38:21.316Z,8.04
2022-12-24T14:41:45.263Z,7.98
2022-12-24T14:45:05.167Z,7.98
2022-12-24T14:48:25.050Z,7.91
2022-12-24T14:51:39.346Z,7.82
2022-12-24T14:54:45.569Z,7.87
2022-12-24T14:57:49.277Z,7.77
2022-12-24T15:00:56.408Z,7.74
2022-12-24T15:04:06.994Z,7.72
2022-12-24T15:07:12.175Z,7.85
2022-12-24T15:10:36.491Z,7.77
2022-12-24T15:13:44.305Z,7.73
2022-12-24T15:16:56.251Z,7.75
2022-12-24T15:20:02.125Z,7.76
2022-12-24T15:23:06.942Z,7.69
2022-12-24T15:26:23.449Z,7.72
2022-12-24T15:29:30.931Z,7.65
2022-12-24T15:32:36.128Z,7.59
2022-12-24T15:35:56.160Z,7.56
2022-12-24T15:39:03.500Z,7.48
2022-12-24T15:42:18.625Z,7.42
2022-12-24T15:45:45.996Z,7.43
2022-12-24T15:48:51.348Z,7.36
2022-12-24T15:51:55.222Z,7.34
2022-12-24T15:54:58.909Z,7.26
2022-12-24T15:58:14.281Z,7.31
2022-12-24T16:01:29.794Z,7.24
2022-12-24T16:04:33.646Z,7.24
2022-12-24T16:08:04.441Z,7.24
2022-12-24T16:11:19.315Z,7.45
2022-12-24T16:14:25.412Z,7.37
2022-12-24T16:17:32.530Z,7.45
2022-12-24T16:20:36.428Z,7.25
2022-12-24T16:23:48.100Z,7.36
2022-12-24T16:26:52.409Z,7.43
2022-12-24T16:29:57.480Z,7.33
2022-12-24T16:33:01.110Z,7.27
2022-12-24T16:36:05.649Z,7.33
2022-12-24T16:39:28.582Z,7.30
2022-12-24T16:42:49.624Z,7.24
2022-12-24T16:45:55.709Z,7.34
2022-12-24T16:48:59.491Z,7.28
2022-12-24T16:52:03.350Z,7.30
2022-12-24T16:55:07.591Z,7.29
2022-12-24T16:58:14.064Z,7.39
2022-12-24T17:01:19.364Z,7.49
2022-12-24T17:04:23.074Z,7.48
2022-12-24T17:07:26.859Z,7.41
2022-12-24T17:10:30.732Z,7.47
2022-12-24T17:13:34.463Z,7.43
2022-12-24T17:16:39.446Z,7.51
2022-12-24T17:19:43.172Z,7.51
2022-12-24T17:22:46.781Z,7.42
2022-12-24T17:25:50.694Z,7.48
2022-12-24T17:28:55.834Z,7.44
2022-12-24T17:32:01.029Z,7.43
2022-12-24T17:35:05.266Z,7.42
2022-12-24T17:38:08.971Z,7.48
2022-12-24T17:41:18.829Z,7.48
2022-12-24T17:44:22.633Z,7.44
2022-12-24T17:47:28.125Z,7.36
2022-12-24T17:50:31.830Z,7.38
2022-12-24T17:53:35.999Z,7.30
2022-12-24T17:56:39.871Z,7.22
2022-12-24T17:59:43.536Z,7.17
2022-12-24T18:02:49.315Z,7.13
2022-12-24T18:05:53.686Z,7.09
2022-12-24T18:08:57.613Z,7.03
2022-12-24T18:12:02.241Z,7.07
2022-12-24T18:15:21.258Z,7.06
2022-12-24T18:18:26.448Z,7.07
2022-12-24T18:21:33.177Z,7.01
2022-12-24T18:24:36.842Z,6.96
2022-12-24T18:27:40.699Z,6.87
2022-12-24T18:30:44.337Z,6.89
2022-12-24T18:33:52.144Z,6.78
2022-12-24T18:36:55.980Z,6.72
2022-12-24T18:40:00.110Z,6.73
2022-12-24T18:43:03.732Z,6.62
2022-12-24T18:46:12.625Z,6.52
2022-12-24T18:49:17.997Z,6.44
2022-12-24T18:52:22.893Z,6.35
2022-12-24T18:55:26.738Z,6.28
2022-12-24T18:58:30.442Z,6.23
2022-12-24T19:01:36.473Z,6.20
2022-12-24T19:04:42.577Z,6.16
2022-12-24T19:07:47.177Z,6.07
2022-12-24T19:10:50.771Z,6.00
2022-12-24T19:13:54.826Z,5.96
2022-12-24T19:16:58.551Z,5.91
2022-12-24T19:20:04.013Z,6.05
2022-12-24T19:23:09.460Z,5.93
2022-12-24T19:26:14.827Z,5.96
2022-12-24T19:29:18.678Z,6.03
2022-12-24T19:32:22.458Z,6.17
2022-12-24T19:35:28.740Z,6.25
2022-12-24T19:38:32.870Z,6.36
2022-12-24T19:41:36.796Z,6.40
2022-12-24T19:44:40.606Z,6.30
2022-12-24T19:47:44.282Z,6.23
2022-12-24T19:50:49.537Z,6.17
2022-12-24T19:53:54.555Z,6.15
2022-12-24T19:56:58.226Z,6.06
2022-12-24T20:00:02.108Z,6.00
2022-12-24T20:03:06.086Z,5.91
2022-12-24T20:06:11.519Z,5.88
2022-12-24T20:09:15.216Z,5.76
2022-12-24T20:12:19.070Z,5.67
2022-12-24T20:15:22.794Z,5.59
2022-12-24T20:18:26.670Z,5.56
2022-12-24T20:21:32.606Z,5.51
2022-12-24T20:24:36.422Z,5.40
2022-12-24T20:27:40.502Z,5.38
2022-12-24T20:30:44.089Z,5.27
2022-12-24T20:33:48.438Z,5.18
2022-12-24T20:36:53.496Z,5.08
2022-12-24T20:39:57.366Z,5.00
2022-12-24T20:43:01.138Z,4.89
2022-12-24T20:46:05.370Z,4.87
2022-12-24T20:49:09.098Z,4.88
2022-12-24T20:52:14.163Z,4.85
2022-12-24T20:55:18.126Z,4.88
2022-12-24T20:58:22.326Z,4.77
2022-12-24T21:01:28.618Z,4.82
2022-12-24T21:04:32.710Z,4.75
2022-12-24T21:07:38.970Z,4.69
2022-12-24T21:10:44.120Z,4.60
2022-12-24T21:13:46.746Z,4.58
2022-12-24T21:16:52.664Z,4.56
2022-12-24T21:19:57.177Z,4.59
2022-12-24T21:23:03.240Z,4.48
2022-12-24T21:26:07.532Z,4.44
2022-12-24T21:29:11.465Z,4.58
2022-12-24T21:32:15.124Z,4.60
2022-12-24T21:35:19.014Z,4.41
2022-12-24T21:38:23.970Z,4.33
2022-12-24T21:41:28.138Z,4.28
2022-12-24T21:44:31.899Z,4.22
2022-12-24T21:47:38.258Z,4.18
2022-12-24T21:50:55.731Z,4.11
2022-12-24T21:54:18.495Z,4.01
2022-12-24T21:57:36.045Z,3.90
2022-12-24T22:00:40.308Z,3.90
2022-12-24T22:03:45.032Z,3.81
2022-12-24T22:07:07.545Z,3.73
2022-12-24T22:10:32.517Z,3.68
2022-12-24T22:13:36.471Z,3.73
2022-12-24T22:16:40.114Z,3.73
2022-12-24T22:19:43.735Z,3.68
2022-12-24T22:22:49.108Z,3.69
2022-12-24T22:25:54.155Z,3.62
2022-12-24T22:28:57.723Z,3.57
2022-12-24T22:32:01.313Z,3.55
2022-12-24T22:35:05.260Z,3.62
2022-12-24T22:38:10.855Z,3.66
2022-12-24T22:41:16.321Z,3.66
2022-12-24T22:44:20.151Z,3.58
2022-12-24T22:47:23.686Z,3.57
2022-12-24T22:50:27.862Z,3.41
2022-12-24T22:53:31.371Z,3.35
2022-12-24T22:56:41.046Z,3.20
2022-12-24T22:59:46.240Z,3.02
2022-12-24T23:02:49.972Z,2.97
2022-12-24T23:06:02.480Z,2.78
2022-12-24T23:09:08.393Z,2.83
2022-12-24T23:12:13.621Z,2.75
2022-12-24T23:15:16.470Z,2.64
2022-12-24T23:18:20.113Z,2.54
2022-12-24T23:21:23.804Z,2.46
2022-12-24T23:24:28.015Z,2.39
2022-12-24T23:27:33.003Z,2.39
2022-12-24T23:30:36.777Z,2.30
2022-12-24T23:33:40.766Z,2.17
2022-12-24T23:36:44.582Z,2.05
2022-12-24T23:39:48.200Z,1.96
2022-12-24T23:42:53.239Z,2.02
2022-12-24T23:45:57.818Z,2.04
2022-12-24T23:49:01.537Z,2.03
2022-12-24T23:52:05.431Z,1.98
2022-12-24T23:55:09.726Z,2.00
2022-12-24T23:58:17.009Z,2.02
